Insider Buying

 
Symbol Name Keyword
Filings for:
Note: This page automatically refreshes every three minutes.
  Symbol Owner Relationship Date Cost # Shares Value($) Total Shares Filing
Y! AP LIEBERMAN WILLIAM K Director Feb 02, 2015 $18.23 82 1,495 5,587 Sep 24, 2020, 02:57 PM
Y! AP LIEBERMAN WILLIAM K Director Oct 31, 2016 $10.52 119 1,252 6,425 Sep 24, 2020, 02:57 PM
Y! AP LIEBERMAN WILLIAM K Director Feb 03, 2014 $17.87 49 876 5,349 Sep 24, 2020, 02:57 PM
Y! AP LIEBERMAN WILLIAM K Director Nov 02, 2015 $11.63 158 1,838 5,976 Sep 24, 2020, 02:57 PM
Y! AP LIEBERMAN WILLIAM K Director Nov 03, 2014 $19.81 57 1,129 5,505 Sep 24, 2020, 02:57 PM
Y! AP LIEBERMAN WILLIAM K Director Aug 01, 2016 $13.12 95 1,247 6,306 Sep 24, 2020, 02:57 PM
Y! AP LIEBERMAN WILLIAM K Director Aug 03, 2015 $13.27 137 1,819 5,818 Sep 24, 2020, 02:57 PM
Y! AP LIEBERMAN WILLIAM K Director May 01, 2017 $14.53 87 1,264 6,597 Sep 24, 2020, 02:57 PM
Y! AP LIEBERMAN WILLIAM K Director Aug 01, 2014 $20.37 55 1,120 5,448 Sep 24, 2020, 02:57 PM
Y! AP LIEBERMAN WILLIAM K Director May 02, 2016 $18.83 50 942 6,211 Sep 24, 2020, 02:57 PM
Y! AP LIEBERMAN WILLIAM K Director May 01, 2015 $16.03 95 1,523 5,681 Sep 24, 2020, 02:57 PM
Y! AP LIEBERMAN WILLIAM K Director Jan 31, 2017 $14.88 85 1,264 6,510 Sep 24, 2020, 02:57 PM
Y! AP LIEBERMAN WILLIAM K Director May 01, 2014 $20.05 44 882 5,393 Sep 24, 2020, 02:57 PM
Y! AP LIEBERMAN WILLIAM K Director Feb 01, 2016 $10.14 184 1,866 6,161 Sep 24, 2020, 02:57 PM
Y! FXNC WILKINS III JAMES R Director Sep 23, 2020 $13.70 2,200 30,137 105,668 Sep 24, 2020, 02:18 PM
Y! MNR LANDY MICHAEL P President and CEO Sep 24, 2020 $13.34 390 5,203 449,620 Sep 24, 2020, 01:52 PM
Y! MNR LANDY MICHAEL P President and CEO Sep 24, 2020 $13.35 10 134 42,126 Sep 24, 2020, 01:52 PM
Y! JSD Saba Capital Management, L.P. 10% Owner Sep 23, 2020 $12.34 12,316 151,979 1,090,303 Sep 24, 2020, 01:46 PM
Y! JSD Saba Capital Management, L.P. 10% Owner Sep 22, 2020 $12.34 1,552 19,152 1,077,987 Sep 24, 2020, 01:46 PM
Y! PB ZALMAN DAVID Senior Chairman & CEO Sep 23, 2020 $49.57 8,700 431,233 8,700 Sep 24, 2020, 01:45 PM
Y! JFR Saba Capital Management, L.P. 10% Owner Sep 23, 2020 $8.33 205,462 1,711,498 6,052,444 Sep 24, 2020, 01:43 PM
Y! JFR Saba Capital Management, L.P. 10% Owner Sep 22, 2020 $8.37 95,907 802,742 5,846,982 Sep 24, 2020, 01:43 PM
Y! NWFL Gifford Jeffrey S Director Sep 23, 2020 $23.79 495 11,776 29,000 Sep 24, 2020, 12:53 PM
Y! KIRK Orr Wilson R III Director Sep 24, 2020 $7.68 1,000 7,679 81,481 Sep 24, 2020, 12:51 PM
Y! KIRK Orr Wilson R III Director Sep 22, 2020 $8.27 2,000 16,535 80,481 Sep 24, 2020, 12:51 PM
Y! WHLR Khoshaba Daniel Chief Executive Officer Sep 23, 2020 $2.98 5,000 14,903 1,068,952 Sep 24, 2020, 12:13 PM
Y! VOXX Kahli Beat 10% Owner Sep 23, 2020 $7.74 20,000 154,800 4,002,370 Sep 24, 2020, 12:07 PM
Y! RCG STAHL MURRAY President & CEO Sep 23, 2020 $1.30 300 391 37,884 Sep 24, 2020, 12:04 PM
Y! RCG STAHL MURRAY President & CEO Sep 23, 2020 $1.30 300 391 37,584 Sep 24, 2020, 12:04 PM
Y! RCG STAHL MURRAY President & CEO Sep 23, 2020 $1.31 75 98 37,284 Sep 24, 2020, 12:04 PM
Y! UUUU Morrison Alex G Director Sep 24, 2020 $1.59 18,000 28,544 108,060 Sep 24, 2020, 11:55 AM
Y! TPL HORIZON KINETICS ASSET MANAGEMENT LLC 10% Owner Sep 23, 2020 $441.70 14 6,184 276,915 Sep 24, 2020, 11:49 AM
Y! BSBK Masterson John J. Director Sep 23, 2020 $7.27 5,000 36,350 82,452 Sep 24, 2020, 11:31 AM
Y! NHC LAROCHE RICHARD F JR Director Sep 22, 2020 $60.93 477 29,062 30,000 Sep 24, 2020, 10:22 AM
Y! TIPT Barnes Michael Gene Executive Chairman Sep 23, 2020 $4.65 2,483 11,539 8,553,365 Sep 24, 2020, 09:54 AM
Y! TIPT Barnes Michael Gene Executive Chairman Sep 22, 2020 $4.66 2,483 11,578 8,550,882 Sep 24, 2020, 09:54 AM
Y! ERESU Fustos William A. Director Sep 23, 2020 $9.76 10,000 97,550 22,000 Sep 24, 2020, 09:03 AM
Y! OEG FORD DANIEL NED CFO Sep 23, 2020 $0.52 10,000 5,234 90,804 Sep 24, 2020, 08:51 AM
Y! ERESU Fustos William A. Director Sep 22, 2020 $9.81 10,000 98,099 12,000 Sep 24, 2020, 08:43 AM
Y! CLNC Palame David A GENERAL COUNSEL AND SECRETARY Sep 23, 2020 $4.70 10,000 47,000 84,395 Sep 24, 2020, 08:00 AM
Y! BKGM Ada Patricia Ann Perez Director Sep 23, 2020 $10.50 1,000 10,500 113,999 Sep 23, 2020, 08:59 PM
Y! OFG Arizmendi Maritza EVP & CFO Sep 22, 2020 $12.32 3,000 36,968 14,419 Sep 23, 2020, 07:59 PM
Y! SAFE ISTAR INC. 10% Owner Sep 23, 2020 $53.50 4,672 249,952 33,646,116 Sep 23, 2020, 07:45 PM
Y! SAFE ISTAR INC. 10% Owner Sep 22, 2020 $53.34 4,686 249,951 33,646,116 Sep 23, 2020, 07:45 PM
Y! SAFE ISTAR INC. 10% Owner Sep 21, 2020 $53.81 4,646 250,001 33,646,116 Sep 23, 2020, 07:45 PM
Y! KFY BURNISON GARY D CEO Sep 21, 2020 $28.32 500 14,158 520,900 Sep 23, 2020, 07:42 PM
Y! XOMA BVF PARTNERS L P/IL Director Sep 21, 2020 $18.39 22,328 410,502 2,023,276 Sep 23, 2020, 07:26 PM
Y! XOMA BVF PARTNERS L P/IL Director Sep 23, 2020 $18.20 17,089 311,016 2,040,124 Sep 23, 2020, 07:26 PM
Y! XOMA BVF PARTNERS L P/IL Director Sep 22, 2020 $18.45 11,951 220,445 2,030,236 Sep 23, 2020, 07:26 PM
Y! PERS Montare Resources I, LLC 10% Owner Sep 23, 2020 $0.47 158,588 74,949 1,943,516 Sep 23, 2020, 07:25 PM
Y! PERS Montare Resources I, LLC 10% Owner Sep 22, 2020 $0.45 100,661 45,499 1,784,928 Sep 23, 2020, 07:25 PM
Y! PERS Montare Resources I, LLC 10% Owner Sep 21, 2020 $0.45 238,054 106,934 1,684,267 Sep 23, 2020, 07:25 PM
Y! DYN VV Manager II, LLC 10% Owner Sep 21, 2020 $19.00 22,005 418,095 79,921 Sep 23, 2020, 07:11 PM
Y! DYN VV Manager II, LLC 10% Owner Sep 21, 2020 $19.00 792,995 15,066,905 2,880,125 Sep 23, 2020, 07:11 PM
Y! DYN Logos Global Management LP 10% Owner Sep 21, 2020 $19.00 700,000 13,300,000 1,504,392 Sep 23, 2020, 07:09 PM
Y! ALRT Chan Sidney CEO Sep 21, 2020 $0.05 240,000,000 12,000,000 383,498,482 Sep 23, 2020, 07:07 PM
Y! FUND GEORGE W WHITNEY Director Sep 23, 2020 $5.95 26,699 158,832 2,318,935 Sep 23, 2020, 07:06 PM
Y! FUND GEORGE W WHITNEY Director Sep 21, 2020 $6.01 23,301 140,125 2,292,236 Sep 23, 2020, 07:06 PM
Y! DYN RA CAPITAL MANAGEMENT, L.P. 10% Owner Sep 21, 2020 $19.00 660,000 12,540,000 2,805,045 Sep 23, 2020, 06:55 PM
Y! MGY CHAZEN STEPHEN I Chairman, President & CEO Sep 22, 2020 $5.59 35,000 195,748 6,945,318 Sep 23, 2020, 06:16 PM
Y! BTN Fundamental Global Investors, LLC Director Sep 22, 2020 $1.56 359 562 199,285 Sep 23, 2020, 06:13 PM
Y! BTN Fundamental Global Investors, LLC Director Sep 22, 2020 $1.56 717 1,122 2,056,740 Sep 23, 2020, 06:13 PM
Y! BTN Fundamental Global Investors, LLC Director Sep 23, 2020 $1.56 218 340 199,503 Sep 23, 2020, 06:13 PM
Y! BTN Fundamental Global Investors, LLC Director Sep 21, 2020 $1.63 587 956 198,926 Sep 23, 2020, 06:13 PM
Y! BTN Fundamental Global Investors, LLC Director Sep 23, 2020 $1.56 405 632 2,057,145 Sep 23, 2020, 06:13 PM
Y! BTN Fundamental Global Investors, LLC Director Sep 21, 2020 $1.63 1,091 1,777 2,056,023 Sep 23, 2020, 06:13 PM
Y! VGR KIRKLAND J BRYANT III Senior VP, Treasurer & CFO Sep 23, 2020 $9.23 2,500 23,075 228,804 Sep 23, 2020, 06:05 PM
Y! VGR KIRKLAND J BRYANT III Senior VP, Treasurer & CFO Sep 22, 2020 $9.45 7,500 70,875 226,304 Sep 23, 2020, 06:05 PM
Y! VGR LAMPEN RICHARD EVP Sep 22, 2020 $9.45 5,000 47,250 426,486 Sep 23, 2020, 06:00 PM
Y! VGR LAMPEN RICHARD EVP Sep 23, 2020 $9.25 2,500 23,125 428,986 Sep 23, 2020, 06:00 PM
Y! SOR ATWOOD J RICHARD President Sep 22, 2020 $36.17 2,000 72,350 23,675 Sep 23, 2020, 05:59 PM
Y! AOUT WADECKI ISABELL MARIE Director Sep 21, 2020 $12.97 1,500 19,448 29,918 Sep 23, 2020, 05:44 PM
Y! AOUT Gluchowski Gregory J. Jr. Director Sep 21, 2020 $13.39 10,000 133,900 36,744 Sep 23, 2020, 05:43 PM
Y! AOUT Fulmer Hugh Andrew EVP, CFO & Treasurer Sep 23, 2020 $13.26 10,000 132,570 36,707 Sep 23, 2020, 05:42 PM
Y! AOUT Murphy Brian Daniel President & CEO Sep 23, 2020 $13.28 10,000 132,770 71,481 Sep 23, 2020, 05:41 PM
Y! CBFV LaCarte John J Director Sep 22, 2020 $19.00 5,740 109,060 73,898 Sep 23, 2020, 05:30 PM
Y! CBFV LaCarte John J Director Sep 21, 2020 $18.98 7,858 149,183 68,158 Sep 23, 2020, 05:30 PM
Y! CBFV LaCarte John J Director Sep 23, 2020 $19.00 10,160 193,040 84,058 Sep 23, 2020, 05:30 PM
Y! LILA NOYES CHRISTOPHER J SVP, CHIEF FINANCIAL OFFICER Sep 22, 2020 $8.10 10,000 80,970 20,000 Sep 23, 2020, 05:30 PM
Y! LILA NOYES CHRISTOPHER J SVP, CHIEF FINANCIAL OFFICER Sep 15, 2020 $8.38 10,000 83,791 10,000 Sep 23, 2020, 05:28 PM
Y! NVDA Neal Stephen C Director Sep 22, 2020 $494.15 15 7,412 3,978 Sep 23, 2020, 05:17 PM
Y! NVDA Neal Stephen C Director Sep 21, 2020 $498.23 435 216,730 3,963 Sep 23, 2020, 05:17 PM
Y! EMMA Niihara Yutaka Chairman and CEO Sep 21, 2020 $1.20 500 600 10,685,246 Sep 23, 2020, 05:12 PM
Y! GBDC Golub David Chief Executive Officer Sep 21, 2020 $13.22 5,000 66,101 1,769,890 Sep 23, 2020, 05:07 PM
Y! GBDC Golub David Chief Executive Officer Sep 22, 2020 $13.19 5,000 65,970 1,774,890 Sep 23, 2020, 05:07 PM
Y! GBDC Golub Lawrence E Chairman Sep 22, 2020 $13.19 5,000 65,970 1,774,890 Sep 23, 2020, 05:06 PM
Y! GBDC Golub Lawrence E Chairman Sep 21, 2020 $13.22 5,000 66,101 1,769,890 Sep 23, 2020, 05:06 PM
Y! GPRE Becker Todd A President and CEO Sep 22, 2020 $14.72 5,000 73,605 544,595 Sep 23, 2020, 04:54 PM
Y! OPTN Goldan Keith A. Chief Financial Officer Sep 23, 2020 $3.90 2,500 9,743 9,751 Sep 23, 2020, 04:47 PM
Y! BDGE Rubin Daniel Director Sep 21, 2020 $17.69 231 4,087 16,031 Sep 23, 2020, 04:47 PM
Y! BDGE Rubin Daniel Director Sep 21, 2020 $17.68 350 6,189 31,688 Sep 23, 2020, 04:47 PM
Y! BDGE Rubin Daniel Director Sep 22, 2020 $17.70 169 2,991 16,200 Sep 23, 2020, 04:47 PM
Y! BDGE Rubin Daniel Director Sep 22, 2020 $17.65 250 4,412 31,938 Sep 23, 2020, 04:47 PM
Y! SREV Edenbrook Capital, LLC 10% Owner Sep 22, 2020 $1.36 1,381,300 1,873,447 13,561,126 Sep 23, 2020, 04:44 PM
Y! SREV Edenbrook Capital, LLC 10% Owner Sep 21, 2020 $1.43 200,000 286,000 12,179,826 Sep 23, 2020, 04:44 PM
Y! SREV Edenbrook Capital, LLC 10% Owner Sep 23, 2020 $1.27 50,000 63,380 13,611,126 Sep 23, 2020, 04:44 PM
Y! FBNC CRAWFORD JAMES C III Director Sep 23, 2020 $20.71 2,500 51,772 68,348 Sep 23, 2020, 04:39 PM
Y! BFS SAUL B FRANCIS II CEO & President Sep 22, 2020 $24.94 10,000 249,400 70,492 Sep 23, 2020, 04:30 PM
Y! AI Konzmann Richard Ernst EVP, CFO and Treasurer Sep 22, 2020 $2.67 20,000 53,480 84,995 Sep 23, 2020, 04:30 PM
Y! AI TONKEL J ROCK JR President and CEO Sep 23, 2020 $2.69 10,000 26,930 548,326 Sep 23, 2020, 04:30 PM
Y! AI TONKEL J ROCK JR President and CEO Sep 22, 2020 $2.68 40,000 107,080 538,326 Sep 23, 2020, 04:30 PM
Y! AI TONKEL J ROCK JR President and CEO Sep 21, 2020 $2.68 50,000 133,850 498,326 Sep 23, 2020, 04:30 PM
Y! VER RUFRANO GLENN J Chief Executive Officer Sep 23, 2020 $6.33 40,000 253,152 3,279,252 Sep 23, 2020, 04:29 PM
Y! OVV Suttles Douglas James President & CEO Sep 23, 2020 $8.50 1,200 10,200 94,535 Sep 23, 2020, 04:28 PM
Y! TRTX TPG Group Holdings (SBS) Advisors, Inc. 10% Owner Sep 22, 2020 $8.78 17,199 151,031 7,181,213 Sep 23, 2020, 04:22 PM
Y! TRTX TPG Group Holdings (SBS) Advisors, Inc. 10% Owner Sep 21, 2020 $8.93 111,002 990,837 7,164,014 Sep 23, 2020, 04:22 PM
Y! TRTX TPG Group Holdings (SBS) Advisors, Inc. 10% Owner Sep 23, 2020 $8.87 229 2,030 7,181,442 Sep 23, 2020, 04:22 PM
Y! TA PORTNOY ADAM D. Director Sep 21, 2020 $21.57 104,738 2,259,199 621,853 Sep 23, 2020, 04:18 PM
Y! HIW Evans Carlos E Director Sep 22, 2020 $33.70 10,000 337,000 34,976 Sep 23, 2020, 04:18 PM
Y! HCI Graham Andrew L. GC/Corporate Secretary Sep 21, 2020 $51.43 90 4,628 3,115 Sep 23, 2020, 04:15 PM
Y! UBA Bannon Kevin j Director Sep 23, 2020 $8.60 6,000 51,600 45,050 Sep 23, 2020, 04:04 PM
Y! CIO Maretic Anthony Chief Financial Officer Sep 23, 2020 $7.16 10,000 71,599 113,563 Sep 23, 2020, 04:02 PM
First : Previous : Next : Last
 
Symbol Name Keyword
Filings for:
Note: This page automatically refreshes every three minutes.
Desktop Version
Symbol Owner Relationship Date Value($)
AP LIEBERMAN WILLIAM K Director Feb 02, 2015 1,495
AP LIEBERMAN WILLIAM K Director Oct 31, 2016 1,252
AP LIEBERMAN WILLIAM K Director Feb 03, 2014 876
AP LIEBERMAN WILLIAM K Director Nov 02, 2015 1,838
AP LIEBERMAN WILLIAM K Director Nov 03, 2014 1,129
AP LIEBERMAN WILLIAM K Director Aug 01, 2016 1,247
AP LIEBERMAN WILLIAM K Director Aug 03, 2015 1,819
AP LIEBERMAN WILLIAM K Director May 01, 2017 1,264
AP LIEBERMAN WILLIAM K Director Aug 01, 2014 1,120
AP LIEBERMAN WILLIAM K Director May 02, 2016 942
AP LIEBERMAN WILLIAM K Director May 01, 2015 1,523
AP LIEBERMAN WILLIAM K Director Jan 31, 2017 1,264
AP LIEBERMAN WILLIAM K Director May 01, 2014 882
AP LIEBERMAN WILLIAM K Director Feb 01, 2016 1,866
FXNC WILKINS III JAMES R Director Sep 23, 2020 30,137
MNR LANDY MICHAEL P President and CEO Sep 24, 2020 5,203
MNR LANDY MICHAEL P President and CEO Sep 24, 2020 134
JSD Saba Capital Management, L.P. 10% Owner Sep 23, 2020 151,979
JSD Saba Capital Management, L.P. 10% Owner Sep 22, 2020 19,152
PB ZALMAN DAVID Senior Chairman & CEO Sep 23, 2020 431,233
JFR Saba Capital Management, L.P. 10% Owner Sep 23, 2020 1,711,498
JFR Saba Capital Management, L.P. 10% Owner Sep 22, 2020 802,742
NWFL Gifford Jeffrey S Director Sep 23, 2020 11,776
KIRK Orr Wilson R III Director Sep 24, 2020 7,679
KIRK Orr Wilson R III Director Sep 22, 2020 16,535
WHLR Khoshaba Daniel Chief Executive Officer Sep 23, 2020 14,903
VOXX Kahli Beat 10% Owner Sep 23, 2020 154,800
RCG STAHL MURRAY President & CEO Sep 23, 2020 391
RCG STAHL MURRAY President & CEO Sep 23, 2020 391
RCG STAHL MURRAY President & CEO Sep 23, 2020 98
UUUU Morrison Alex G Director Sep 24, 2020 28,544
TPL HORIZON KINETICS ASSET MANAGEMENT LLC 10% Owner Sep 23, 2020 6,184
BSBK Masterson John J. Director Sep 23, 2020 36,350
NHC LAROCHE RICHARD F JR Director Sep 22, 2020 29,062
TIPT Barnes Michael Gene Executive Chairman Sep 23, 2020 11,539
TIPT Barnes Michael Gene Executive Chairman Sep 22, 2020 11,578
ERESU Fustos William A. Director Sep 23, 2020 97,550
OEG FORD DANIEL NED CFO Sep 23, 2020 5,234
ERESU Fustos William A. Director Sep 22, 2020 98,099
CLNC Palame David A GENERAL COUNSEL AND SECRETARY Sep 23, 2020 47,000
BKGM Ada Patricia Ann Perez Director Sep 23, 2020 10,500
OFG Arizmendi Maritza EVP & CFO Sep 22, 2020 36,968
SAFE ISTAR INC. 10% Owner Sep 23, 2020 249,952
SAFE ISTAR INC. 10% Owner Sep 22, 2020 249,951
SAFE ISTAR INC. 10% Owner Sep 21, 2020 250,001
KFY BURNISON GARY D CEO Sep 21, 2020 14,158
XOMA BVF PARTNERS L P/IL Director Sep 21, 2020 410,502
XOMA BVF PARTNERS L P/IL Director Sep 23, 2020 311,016
XOMA BVF PARTNERS L P/IL Director Sep 22, 2020 220,445
PERS Montare Resources I, LLC 10% Owner Sep 23, 2020 74,949
PERS Montare Resources I, LLC 10% Owner Sep 22, 2020 45,499
PERS Montare Resources I, LLC 10% Owner Sep 21, 2020 106,934
DYN VV Manager II, LLC 10% Owner Sep 21, 2020 418,095
DYN VV Manager II, LLC 10% Owner Sep 21, 2020 15,066,905
DYN Logos Global Management LP 10% Owner Sep 21, 2020 13,300,000
ALRT Chan Sidney CEO Sep 21, 2020 12,000,000
FUND GEORGE W WHITNEY Director Sep 23, 2020 158,832
FUND GEORGE W WHITNEY Director Sep 21, 2020 140,125
DYN RA CAPITAL MANAGEMENT, L.P. 10% Owner Sep 21, 2020 12,540,000
MGY CHAZEN STEPHEN I Chairman, President & CEO Sep 22, 2020 195,748
BTN Fundamental Global Investors, LLC Director Sep 22, 2020 562
BTN Fundamental Global Investors, LLC Director Sep 22, 2020 1,122
BTN Fundamental Global Investors, LLC Director Sep 23, 2020 340
BTN Fundamental Global Investors, LLC Director Sep 21, 2020 956
BTN Fundamental Global Investors, LLC Director Sep 23, 2020 632
BTN Fundamental Global Investors, LLC Director Sep 21, 2020 1,777
VGR KIRKLAND J BRYANT III Senior VP, Treasurer & CFO Sep 23, 2020 23,075
VGR KIRKLAND J BRYANT III Senior VP, Treasurer & CFO Sep 22, 2020 70,875
VGR LAMPEN RICHARD EVP Sep 22, 2020 47,250
VGR LAMPEN RICHARD EVP Sep 23, 2020 23,125
SOR ATWOOD J RICHARD President Sep 22, 2020 72,350
AOUT WADECKI ISABELL MARIE Director Sep 21, 2020 19,448
AOUT Gluchowski Gregory J. Jr. Director Sep 21, 2020 133,900
AOUT Fulmer Hugh Andrew EVP, CFO & Treasurer Sep 23, 2020 132,570
AOUT Murphy Brian Daniel President & CEO Sep 23, 2020 132,770
CBFV LaCarte John J Director Sep 22, 2020 109,060
CBFV LaCarte John J Director Sep 21, 2020 149,183
CBFV LaCarte John J Director Sep 23, 2020 193,040
LILA NOYES CHRISTOPHER J SVP, CHIEF FINANCIAL OFFICER Sep 22, 2020 80,970
LILA NOYES CHRISTOPHER J SVP, CHIEF FINANCIAL OFFICER Sep 15, 2020 83,791
NVDA Neal Stephen C Director Sep 22, 2020 7,412
NVDA Neal Stephen C Director Sep 21, 2020 216,730
EMMA Niihara Yutaka Chairman and CEO Sep 21, 2020 600
GBDC Golub David Chief Executive Officer Sep 21, 2020 66,101
GBDC Golub David Chief Executive Officer Sep 22, 2020 65,970
GBDC Golub Lawrence E Chairman Sep 22, 2020 65,970
GBDC Golub Lawrence E Chairman Sep 21, 2020 66,101
GPRE Becker Todd A President and CEO Sep 22, 2020 73,605
OPTN Goldan Keith A. Chief Financial Officer Sep 23, 2020 9,743
BDGE Rubin Daniel Director Sep 21, 2020 4,087
BDGE Rubin Daniel Director Sep 21, 2020 6,189
BDGE Rubin Daniel Director Sep 22, 2020 2,991
BDGE Rubin Daniel Director Sep 22, 2020 4,412
SREV Edenbrook Capital, LLC 10% Owner Sep 22, 2020 1,873,447
SREV Edenbrook Capital, LLC 10% Owner Sep 21, 2020 286,000
SREV Edenbrook Capital, LLC 10% Owner Sep 23, 2020 63,380
FBNC CRAWFORD JAMES C III Director Sep 23, 2020 51,772
BFS SAUL B FRANCIS II CEO & President Sep 22, 2020 249,400
AI Konzmann Richard Ernst EVP, CFO and Treasurer Sep 22, 2020 53,480
AI TONKEL J ROCK JR President and CEO Sep 23, 2020 26,930
AI TONKEL J ROCK JR President and CEO Sep 22, 2020 107,080
AI TONKEL J ROCK JR President and CEO Sep 21, 2020 133,850
VER RUFRANO GLENN J Chief Executive Officer Sep 23, 2020 253,152
OVV Suttles Douglas James President & CEO Sep 23, 2020 10,200
TRTX TPG Group Holdings (SBS) Advisors, Inc. 10% Owner Sep 22, 2020 151,031
TRTX TPG Group Holdings (SBS) Advisors, Inc. 10% Owner Sep 21, 2020 990,837
TRTX TPG Group Holdings (SBS) Advisors, Inc. 10% Owner Sep 23, 2020 2,030
TA PORTNOY ADAM D. Director Sep 21, 2020 2,259,199
HIW Evans Carlos E Director Sep 22, 2020 337,000
HCI Graham Andrew L. GC/Corporate Secretary Sep 21, 2020 4,628
UBA Bannon Kevin j Director Sep 23, 2020 51,600
CIO Maretic Anthony Chief Financial Officer Sep 23, 2020 71,599
First : Previous : Next : Last